Aviation Digital Data Service (ADDS)

Output produced by METARs form (1716 UTC 24 June 2019)
found at http://www.aviationweather.gov/metar/data/
 
METAR text: ZPPP 241700Z 03002MPS 350V060 9999 TS FEW020CB SCT020 BKN040 19/18 Q1017 BECMG TL1830 NSW
Conditions at: ZPPP (KUNMING/WUJIABA , CN) observed 1700 UTC 24 June 2019
Temperature: 19.0°C (66°F)
Dewpoint: 18.0°C (64°F) [RH = 94%]
Pressure (altimeter): 30.03 inches Hg (1017.0 mb)
Winds: from the NNE (30 degrees) at 5 MPH (4 knots; 2.1 m/s)
Visibility: 6 or more miles (10+ km)
Ceiling: 4000 feet AGL
Clouds: few clouds at 2000 feet AGL
scattered clouds at 2000 feet AGL
broken clouds at 4000 feet AGL
Weather: TS  (thunderstorm)

METAR text: ZPPP 241600Z 08002MPS 7000 -TSRA FEW020CB SCT020 BKN040 19/18 Q1018 BECMG TL1640 NSW
Conditions at: ZPPP (KUNMING/WUJIABA , CN) observed 1600 UTC 24 June 2019
Temperature: 19.0°C (66°F)
Dewpoint: 18.0°C (64°F) [RH = 94%]
Pressure (altimeter): 30.06 inches Hg (1018.0 mb)
Winds: from the E (80 degrees) at 5 MPH (4 knots; 2.1 m/s)
Visibility: 4 miles ( 7 km)
Ceiling: 4000 feet AGL
Clouds: few clouds at 2000 feet AGL
scattered clouds at 2000 feet AGL
broken clouds at 4000 feet AGL
Weather: -TSRA  (light rain associated with thunderstorm(s))

METAR text: ZPPP 241500Z 28003MPS 230V300 8000 -TSRA FEW020CB SCT020 BKN040 19/18 Q1018 BECMG TL1630 NSW
Conditions at: ZPPP (KUNMING/WUJIABA , CN) observed 1500 UTC 24 June 2019
Temperature: 19.0°C (66°F)
Dewpoint: 18.0°C (64°F) [RH = 94%]
Pressure (altimeter): 30.06 inches Hg (1018.0 mb)
Winds: from the W (280 degrees) at 7 MPH (6 knots; 3.1 m/s)
Visibility: 5 miles ( 8 km)
Ceiling: 4000 feet AGL
Clouds: few clouds at 2000 feet AGL
scattered clouds at 2000 feet AGL
broken clouds at 4000 feet AGL
Weather: -TSRA  (light rain associated with thunderstorm(s))

METAR text: ZPPP 241400Z 01002MPS 310V050 8000 FEW020TCU SCT020 BKN040 20/18 Q1017 NOSIG
Conditions at: ZPPP (KUNMING/WUJIABA , CN) observed 1400 UTC 24 June 2019
Temperature: 20.0°C (68°F)
Dewpoint: 18.0°C (64°F) [RH = 88%]
Pressure (altimeter): 30.03 inches Hg (1017.0 mb)
Winds: from the N (10 degrees) at 5 MPH (4 knots; 2.1 m/s)
Visibility: 5 miles ( 8 km)
Ceiling: 4000 feet AGL
Clouds: few clouds at 2000 feet AGL
scattered clouds at 2000 feet AGL
broken clouds at 4000 feet AGL
Weather: no significant weather observed at this time

METAR text: ZPPP 241300Z 34002MPS 310V010 9999 SCT020 BKN040 20/18 Q1016 NOSIG
Conditions at: ZPPP (KUNMING/WUJIABA , CN) observed 1300 UTC 24 June 2019
Temperature: 20.0°C (68°F)
Dewpoint: 18.0°C (64°F) [RH = 88%]
Pressure (altimeter): 30.00 inches Hg (1016.0 mb)
Winds: from the NNW (340 degrees) at 5 MPH (4 knots; 2.1 m/s)
Visibility: 6 or more miles (10+ km)
Ceiling: 4000 feet AGL
Clouds: scattered clouds at 2000 feet AGL
broken clouds at 4000 feet AGL
Weather: no significant weather observed at this time

METAR text: ZPPP 241200Z 33002MPS 9999 FEW020TCU SCT020 21/18 Q1015 NOSIG
Conditions at: ZPPP (KUNMING/WUJIABA , CN) observed 1200 UTC 24 June 2019
Temperature: 21.0°C (70°F)
Dewpoint: 18.0°C (64°F) [RH = 83%]
Pressure (altimeter): 29.97 inches Hg (1015.0 mb)
Winds: from the NNW (330 degrees) at 5 MPH (4 knots; 2.1 m/s)
Visibility: 6 or more miles (10+ km)
Ceiling: at least 12,000 feet AGL
Clouds: few clouds at 2000 feet AGL
scattered clouds at 2000 feet AGL
Weather: no significant weather observed at this time

METAR text: ZPPP 241100Z 01003MPS 9999 FEW020TCU SCT020 21/19 Q1015 NOSIG
Conditions at: ZPPP (KUNMING/WUJIABA , CN) observed 1100 UTC 24 June 2019
Temperature: 21.0°C (70°F)
Dewpoint: 19.0°C (66°F) [RH = 88%]
Pressure (altimeter): 29.97 inches Hg (1015.0 mb)
Winds: from the N (10 degrees) at 7 MPH (6 knots; 3.1 m/s)
Visibility: 6 or more miles (10+ km)
Ceiling: at least 12,000 feet AGL
Clouds: few clouds at 2000 feet AGL
scattered clouds at 2000 feet AGL
Weather: no significant weather observed at this time

METAR text: ZPPP 241000Z 01003MPS 340V040 9999 FEW020TCU SCT020 BKN033 22/19 Q1015 NOSIG
Conditions at: ZPPP (KUNMING/WUJIABA , CN) observed 1000 UTC 24 June 2019
Temperature: 22.0°C (72°F)
Dewpoint: 19.0°C (66°F) [RH = 83%]
Pressure (altimeter): 29.97 inches Hg (1015.0 mb)
Winds: from the N (10 degrees) at 7 MPH (6 knots; 3.1 m/s)
Visibility: 6 or more miles (10+ km)
Ceiling: 3300 feet AGL
Clouds: few clouds at 2000 feet AGL
scattered clouds at 2000 feet AGL
broken clouds at 3300 feet AGL
Weather: no significant weather observed at this time

METAR text: ZPPP 240900Z 04002MPS 350V080 9999 FEW020TCU SCT020 BKN033 21/19 Q1015 NOSIG
Conditions at: ZPPP (KUNMING/WUJIABA , CN) observed 0900 UTC 24 June 2019
Temperature: 21.0°C (70°F)
Dewpoint: 19.0°C (66°F) [RH = 88%]
Pressure (altimeter): 29.97 inches Hg (1015.0 mb)
Winds: from the NE (40 degrees) at 5 MPH (4 knots; 2.1 m/s)
Visibility: 6 or more miles (10+ km)
Ceiling: 3300 feet AGL
Clouds: few clouds at 2000 feet AGL
scattered clouds at 2000 feet AGL
broken clouds at 3300 feet AGL
Weather: no significant weather observed at this time

METAR text: ZPPP 240800Z 26002MPS 200V320 9999 FEW020TCU SCT020 BKN033 22/18 Q1016 NOSIG
Conditions at: ZPPP (KUNMING/WUJIABA , CN) observed 0800 UTC 24 June 2019
Temperature: 22.0°C (72°F)
Dewpoint: 18.0°C (64°F) [RH = 78%]
Pressure (altimeter): 30.00 inches Hg (1016.0 mb)
Winds: from the W (260 degrees) at 5 MPH (4 knots; 2.1 m/s)
Visibility: 6 or more miles (10+ km)
Ceiling: 3300 feet AGL
Clouds: few clouds at 2000 feet AGL
scattered clouds at 2000 feet AGL
broken clouds at 3300 feet AGL
Weather: no significant weather observed at this time

METAR text: ZPPP 240700Z VRB01MPS 9999 FEW020TCU SCT020 BKN033 20/18 Q1016 NOSIG
Conditions at: ZPPP (KUNMING/WUJIABA , CN) observed 0700 UTC 24 June 2019
Temperature: 20.0°C (68°F)
Dewpoint: 18.0°C (64°F) [RH = 88%]
Pressure (altimeter): 30.00 inches Hg (1016.0 mb)
Winds: variable direction winds at 2 MPH (2 knots; 1.0 m/s)
Visibility: 6 or more miles (10+ km)
Ceiling: 3300 feet AGL
Clouds: few clouds at 2000 feet AGL
scattered clouds at 2000 feet AGL
broken clouds at 3300 feet AGL
Weather: no significant weather observed at this time

METAR text: ZPPP 240600Z 26002MPS 230V310 8000 -SHRA FEW010 SCT020 OVC036 19/18 Q1017 NOSIG
Conditions at: ZPPP (KUNMING/WUJIABA , CN) observed 0600 UTC 24 June 2019
Temperature: 19.0°C (66°F)
Dewpoint: 18.0°C (64°F) [RH = 94%]
Pressure (altimeter): 30.03 inches Hg (1017.0 mb)
Winds: from the W (260 degrees) at 5 MPH (4 knots; 2.1 m/s)
Visibility: 5 miles ( 8 km)
Ceiling: 3600 feet AGL
Clouds: few clouds at 1000 feet AGL
scattered clouds at 2000 feet AGL
overcast cloud deck at 3600 feet AGL
Weather: -SHRA  (light rain showers)

METAR text: ZPPP 240500Z 22004MPS 6000 -SHRA FEW010 SCT020 OVC036 18/18 Q1018 NOSIG
Conditions at: ZPPP (KUNMING/WUJIABA , CN) observed 0500 UTC 24 June 2019
Temperature: 18.0°C (64°F)
Dewpoint: 18.0°C (64°F) [RH = 100%]
Pressure (altimeter): 30.06 inches Hg (1018.0 mb)
Winds: from the SW (220 degrees) at 9 MPH (8 knots; 4.1 m/s)
Visibility: 4 miles ( 6 km)
Ceiling: 3600 feet AGL
Clouds: few clouds at 1000 feet AGL
scattered clouds at 2000 feet AGL
overcast cloud deck at 3600 feet AGL
Weather: -SHRA  (light rain showers)

METAR text: ZPPP 240400Z 20004MPS 160V240 9999 -SHRA FEW010 SCT020 OVC036 19/17 Q1018 NOSIG
Conditions at: ZPPP (KUNMING/WUJIABA , CN) observed 0400 UTC 24 June 2019
Temperature: 19.0°C (66°F)
Dewpoint: 17.0°C (63°F) [RH = 88%]
Pressure (altimeter): 30.06 inches Hg (1018.0 mb)
Winds: from the SSW (200 degrees) at 9 MPH (8 knots; 4.1 m/s)
Visibility: 6 or more miles (10+ km)
Ceiling: 3600 feet AGL
Clouds: few clouds at 1000 feet AGL
scattered clouds at 2000 feet AGL
overcast cloud deck at 3600 feet AGL
Weather: -SHRA  (light rain showers)

METAR text: ZPPP 240300Z 06002MPS 3500 -SHRA BR FEW010 SCT020 OVC036 18/17 Q1019 BECMG TL0330 23005MPS
Conditions at: ZPPP (KUNMING/WUJIABA , CN) observed 0300 UTC 24 June 2019
Temperature: 18.0°C (64°F)
Dewpoint: 17.0°C (63°F) [RH = 94%]
Pressure (altimeter): 30.09 inches Hg (1019.0 mb)
Winds: from the ENE (60 degrees) at 5 MPH (4 knots; 2.1 m/s)
Visibility: 2.17 miles (3.49 km)
Ceiling: 3600 feet AGL
Clouds: few clouds at 1000 feet AGL
scattered clouds at 2000 feet AGL
overcast cloud deck at 3600 feet AGL
Weather: -SHRA BR  (light rain showers, mist)

METAR text: ZPPP 240200Z VRB01MPS 3500 BR FEW010 SCT020 OVC036 18/17 Q1019 NOSIG
Conditions at: ZPPP (KUNMING/WUJIABA , CN) observed 0200 UTC 24 June 2019
Temperature: 18.0°C (64°F)
Dewpoint: 17.0°C (63°F) [RH = 94%]
Pressure (altimeter): 30.09 inches Hg (1019.0 mb)
Winds: variable direction winds at 2 MPH (2 knots; 1.0 m/s)
Visibility: 2.17 miles (3.49 km)
Ceiling: 3600 feet AGL
Clouds: few clouds at 1000 feet AGL
scattered clouds at 2000 feet AGL
overcast cloud deck at 3600 feet AGL
Weather: BR  (mist)

METAR text: ZPPP 240100Z 02002MPS 310V070 4000 BR SCT020 BKN040 17/16 Q1018 NOSIG
Conditions at: ZPPP (KUNMING/WUJIABA , CN) observed 0100 UTC 24 June 2019
Temperature: 17.0°C (63°F)
Dewpoint: 16.0°C (61°F) [RH = 94%]
Pressure (altimeter): 30.06 inches Hg (1018.0 mb)
Winds: from the NNE (20 degrees) at 5 MPH (4 knots; 2.1 m/s)
Visibility: 2.49 miles (4.01 km)
Ceiling: 4000 feet AGL
Clouds: scattered clouds at 2000 feet AGL
broken clouds at 4000 feet AGL
Weather: BR  (mist)

METAR text: ZPPP 240000Z 36002MPS 300V030 4500 BR SCT020 BKN040 17/16 Q1018 NOSIG
Conditions at: ZPPP (KUNMING/WUJIABA , CN) observed 0000 UTC 24 June 2019
Temperature: 17.0°C (63°F)
Dewpoint: 16.0°C (61°F) [RH = 94%]
Pressure (altimeter): 30.06 inches Hg (1018.0 mb)
Winds: from the N (360 degrees) at 5 MPH (4 knots; 2.1 m/s)
Visibility: 2.80 miles (4.51 km)
Ceiling: 4000 feet AGL
Clouds: scattered clouds at 2000 feet AGL
broken clouds at 4000 feet AGL
Weather: BR  (mist)

METAR text: ZPPP 232300Z 35002MPS 300V020 4000 BR SCT026 17/16 Q1018 NOSIG
Conditions at: ZPPP (KUNMING/WUJIABA , CN) observed 2300 UTC 23 June 2019
Temperature: 17.0°C (63°F)
Dewpoint: 16.0°C (61°F) [RH = 94%]
Pressure (altimeter): 30.06 inches Hg (1018.0 mb)
Winds: from the N (350 degrees) at 5 MPH (4 knots; 2.1 m/s)
Visibility: 2.49 miles (4.01 km)
Ceiling: at least 12,000 feet AGL
Clouds: scattered clouds at 2600 feet AGL
Weather: BR  (mist)

METAR text: ZPPP 232200Z 00000MPS 9999 SCT026 17/16 Q1018 NOSIG
Conditions at: ZPPP (KUNMING/WUJIABA , CN) observed 2200 UTC 23 June 2019
Temperature: 17.0°C (63°F)
Dewpoint: 16.0°C (61°F) [RH = 94%]
Pressure (altimeter): 30.06 inches Hg (1018.0 mb)
Winds: calm
Visibility: 6 or more miles (10+ km)
Ceiling: at least 12,000 feet AGL
Clouds: scattered clouds at 2600 feet AGL
Weather: no significant weather observed at this time

METAR text: ZPPP 232100Z 36002MPS 9999 SCT026 17/16 Q1017 NOSIG
Conditions at: ZPPP (KUNMING/WUJIABA , CN) observed 2100 UTC 23 June 2019
Temperature: 17.0°C (63°F)
Dewpoint: 16.0°C (61°F) [RH = 94%]
Pressure (altimeter): 30.03 inches Hg (1017.0 mb)
Winds: from the N (360 degrees) at 5 MPH (4 knots; 2.1 m/s)
Visibility: 6 or more miles (10+ km)
Ceiling: at least 12,000 feet AGL
Clouds: scattered clouds at 2600 feet AGL
Weather: no significant weather observed at this time

METAR text: ZPPP 232000Z 00000MPS 9999 SCT026 17/16 Q1017 NOSIG
Conditions at: ZPPP (KUNMING/WUJIABA , CN) observed 2000 UTC 23 June 2019
Temperature: 17.0°C (63°F)
Dewpoint: 16.0°C (61°F) [RH = 94%]
Pressure (altimeter): 30.03 inches Hg (1017.0 mb)
Winds: calm
Visibility: 6 or more miles (10+ km)
Ceiling: at least 12,000 feet AGL
Clouds: scattered clouds at 2600 feet AGL
Weather: no significant weather observed at this time

METAR text: ZPPP 231900Z 28003MPS 250V320 CAVOK 17/16 Q1018 NOSIG
Conditions at: ZPPP (KUNMING/WUJIABA , CN) observed 1900 UTC 23 June 2019
Temperature: 17.0°C (63°F)
Dewpoint: 16.0°C (61°F) [RH = 94%]
Pressure (altimeter): 30.06 inches Hg (1018.0 mb)
Winds: from the W (280 degrees) at 7 MPH (6 knots; 3.1 m/s)
Visibility: 6 or more miles (10+ km)
Ceiling: ceiling and visibility are OK
Clouds: unknown
Weather: no significant weather observed at this time

METAR text: ZPPP 231800Z 14001MPS CAVOK 17/16 Q1018 NOSIG
Conditions at: ZPPP (KUNMING/WUJIABA , CN) observed 1800 UTC 23 June 2019
Temperature: 17.0°C (63°F)
Dewpoint: 16.0°C (61°F) [RH = 94%]
Pressure (altimeter): 30.06 inches Hg (1018.0 mb)
Winds: from the SE (140 degrees) at 2 MPH (2 knots; 1.0 m/s)
Visibility: 6 or more miles (10+ km)
Ceiling: ceiling and visibility are OK
Clouds: unknown
Weather: no significant weather observed at this time

METAR text: ZPPP 231700Z 00000MPS 9999 FEW026 17/16 Q1019 NOSIG
Conditions at: ZPPP (KUNMING/WUJIABA , CN) observed 1700 UTC 23 June 2019
Temperature: 17.0°C (63°F)
Dewpoint: 16.0°C (61°F) [RH = 94%]
Pressure (altimeter): 30.09 inches Hg (1019.0 mb)
Winds: calm
Visibility: 6 or more miles (10+ km)
Ceiling: at least 12,000 feet AGL
Clouds: few clouds at 2600 feet AGL
Weather: no significant weather observed at this time

METAR text: ZPPP 231600Z 02002MPS 300V090 9999 FEW026 17/15 Q1019 NOSIG
Conditions at: ZPPP (KUNMING/WUJIABA , CN) observed 1600 UTC 23 June 2019
Temperature: 17.0°C (63°F)
Dewpoint: 15.0°C (59°F) [RH = 88%]
Pressure (altimeter): 30.09 inches Hg (1019.0 mb)
Winds: from the NNE (20 degrees) at 5 MPH (4 knots; 2.1 m/s)
Visibility: 6 or more miles (10+ km)
Ceiling: at least 12,000 feet AGL
Clouds: few clouds at 2600 feet AGL
Weather: no significant weather observed at this time

METAR text: ZPPP 231500Z 22004MPS 9999 -SHRA SCT026 17/15 Q1019 NOSIG
Conditions at: ZPPP (KUNMING/WUJIABA , CN) observed 1500 UTC 23 June 2019
Temperature: 17.0°C (63°F)
Dewpoint: 15.0°C (59°F) [RH = 88%]
Pressure (altimeter): 30.09 inches Hg (1019.0 mb)
Winds: from the SW (220 degrees) at 9 MPH (8 knots; 4.1 m/s)
Visibility: 6 or more miles (10+ km)
Ceiling: at least 12,000 feet AGL
Clouds: scattered clouds at 2600 feet AGL
Weather: -SHRA  (light rain showers)

METAR text: ZPPP 231400Z 22004MPS 9999 -SHRA FEW026TCU SCT026 17/16 Q1019 NOSIG
Conditions at: ZPPP (KUNMING/WUJIABA , CN) observed 1400 UTC 23 June 2019
Temperature: 17.0°C (63°F)
Dewpoint: 16.0°C (61°F) [RH = 94%]
Pressure (altimeter): 30.09 inches Hg (1019.0 mb)
Winds: from the SW (220 degrees) at 9 MPH (8 knots; 4.1 m/s)
Visibility: 6 or more miles (10+ km)
Ceiling: at least 12,000 feet AGL
Clouds: few clouds at 2600 feet AGL
scattered clouds at 2600 feet AGL
Weather: -SHRA  (light rain showers)

METAR text: ZPPP 231300Z 22003MPS 9999 -SHRA FEW026TCU SCT026 17/15 Q1018 NOSIG
Conditions at: ZPPP (KUNMING/WUJIABA , CN) observed 1300 UTC 23 June 2019
Temperature: 17.0°C (63°F)
Dewpoint: 15.0°C (59°F) [RH = 88%]
Pressure (altimeter): 30.06 inches Hg (1018.0 mb)
Winds: from the SW (220 degrees) at 7 MPH (6 knots; 3.1 m/s)
Visibility: 6 or more miles (10+ km)
Ceiling: at least 12,000 feet AGL
Clouds: few clouds at 2600 feet AGL
scattered clouds at 2600 feet AGL
Weather: -SHRA  (light rain showers)

METAR text: ZPPP 231200Z 18004MPS 9999 -SHRA FEW026CB SCT026 BKN040 17/16 Q1017 RETSRA NOSIG
Conditions at: ZPPP (KUNMING/WUJIABA , CN) observed 1200 UTC 23 June 2019
Temperature: 17.0°C (63°F)
Dewpoint: 16.0°C (61°F) [RH = 94%]
Pressure (altimeter): 30.03 inches Hg (1017.0 mb)
Winds: from the S (180 degrees) at 9 MPH (8 knots; 4.1 m/s)
Visibility: 6 or more miles (10+ km)
Ceiling: 4000 feet AGL
Clouds: few clouds at 2600 feet AGL
scattered clouds at 2600 feet AGL
broken clouds at 4000 feet AGL
Weather: -SHRA  (light rain showers)

METAR text: ZPPP 231100Z 25008G13MPS 200V270 9999 FEW026CB SCT026 BKN040 19/16 Q1016 BECMG TL1130 TSRA
Conditions at: ZPPP (KUNMING/WUJIABA , CN) observed 1100 UTC 23 June 2019
Temperature: 19.0°C (66°F)
Dewpoint: 16.0°C (61°F) [RH = 83%]
Pressure (altimeter): 30.00 inches Hg (1016.0 mb)
Winds: from the WSW (250 degrees) at 18 MPH (16 knots; 8.2 m/s)
gusting to 29 MPH (25 knots; 12.9 m/s)
Visibility: 6 or more miles (10+ km)
Ceiling: 4000 feet AGL
Clouds: few clouds at 2600 feet AGL
scattered clouds at 2600 feet AGL
broken clouds at 4000 feet AGL
Weather: no significant weather observed at this time

METAR text: ZPPP 231000Z 11005MPS 080V140 9999 FEW026TCU SCT026 23/17 Q1015 NOSIG
Conditions at: ZPPP (KUNMING/WUJIABA , CN) observed 1000 UTC 23 June 2019
Temperature: 23.0°C (73°F)
Dewpoint: 17.0°C (63°F) [RH = 69%]
Pressure (altimeter): 29.97 inches Hg (1015.0 mb)
Winds: from the ESE (110 degrees) at 12 MPH (10 knots; 5.1 m/s)
Visibility: 6 or more miles (10+ km)
Ceiling: at least 12,000 feet AGL
Clouds: few clouds at 2600 feet AGL
scattered clouds at 2600 feet AGL
Weather: no significant weather observed at this time

METAR text: ZPPP 230900Z 08005MPS 050V110 9999 FEW026 24/18 Q1015 NOSIG
Conditions at: ZPPP (KUNMING/WUJIABA , CN) observed 0900 UTC 23 June 2019
Temperature: 24.0°C (75°F)
Dewpoint: 18.0°C (64°F) [RH = 69%]
Pressure (altimeter): 29.97 inches Hg (1015.0 mb)
Winds: from the E (80 degrees) at 12 MPH (10 knots; 5.1 m/s)
Visibility: 6 or more miles (10+ km)
Ceiling: at least 12,000 feet AGL
Clouds: few clouds at 2600 feet AGL
Weather: no significant weather observed at this time

METAR text: ZPPP 230800Z 05005MPS 030V090 9999 FEW023TCU SCT023 22/18 Q1016 NOSIG
Conditions at: ZPPP (KUNMING/WUJIABA , CN) observed 0800 UTC 23 June 2019
Temperature: 22.0°C (72°F)
Dewpoint: 18.0°C (64°F) [RH = 78%]
Pressure (altimeter): 30.00 inches Hg (1016.0 mb)
Winds: from the NE (50 degrees) at 12 MPH (10 knots; 5.1 m/s)
Visibility: 6 or more miles (10+ km)
Ceiling: at least 12,000 feet AGL
Clouds: few clouds at 2300 feet AGL
scattered clouds at 2300 feet AGL
Weather: no significant weather observed at this time

METAR text: ZPPP 230700Z 06006MPS 020V090 9999 FEW023CB SCT023 22/18 Q1016 NOSIG
Conditions at: ZPPP (KUNMING/WUJIABA , CN) observed 0700 UTC 23 June 2019
Temperature: 22.0°C (72°F)
Dewpoint: 18.0°C (64°F) [RH = 78%]
Pressure (altimeter): 30.00 inches Hg (1016.0 mb)
Winds: from the ENE (60 degrees) at 14 MPH (12 knots; 6.2 m/s)
Visibility: 6 or more miles (10+ km)
Ceiling: at least 12,000 feet AGL
Clouds: few clouds at 2300 feet AGL
scattered clouds at 2300 feet AGL
Weather: no significant weather observed at this time

METAR text: ZPPP 230600Z 01004MPS 9999 -SHRA FEW026TCU SCT026 BKN043 21/18 Q1017 RETS NOSIG
Conditions at: ZPPP (KUNMING/WUJIABA , CN) observed 0600 UTC 23 June 2019
Temperature: 21.0°C (70°F)
Dewpoint: 18.0°C (64°F) [RH = 83%]
Pressure (altimeter): 30.03 inches Hg (1017.0 mb)
Winds: from the N (10 degrees) at 9 MPH (8 knots; 4.1 m/s)
Visibility: 6 or more miles (10+ km)
Ceiling: 4300 feet AGL
Clouds: few clouds at 2600 feet AGL
scattered clouds at 2600 feet AGL
broken clouds at 4300 feet AGL
Weather: -SHRA  (light rain showers)

Forecast for: ZPPP (KUNMING/WUJIABA , CN)
Text: TAF ZPPP 241310Z 2418/2518 04004MPS 9999 SCT026 BKN040 TX26/2508Z TN16/2423Z
Forecast period: 1800 UTC 24 June 2019 to 1800 UTC 25 June 2019
Forecast type: FROM: standard forecast or significant change
Winds: from the NE (40 degrees) at 9 MPH (8 knots; 4.1 m/s)
Visibility: 6 or more miles 10+ km)
Ceiling: 4000 feet AGL
Clouds: scattered clouds at 2600 feet AGL
broken clouds at 4000 feet AGL
Weather: no significant weather forecast for this period